Time;durP1;ratioP1;P1;durP2;ratioP2;P2;SDS_P1;SDS_P2;PMS_P1;PMS_P2;Temp;Humidity;BMP_temperature;BMP_pressure;BME280_temperature;BME280_humidity;BME280_pressure;Samples;Min_cycle;Max_cycle;Signal;HPM_P1;HPM_P2
2023/05/19 00:00:08;;;;;;;17.25;8.10;;;;;;;4.91;100.00;102384.88;10523915;28;20036;-81
2023/05/19 00:05:10;;;;;;;38.38;11.52;;;;;;;4.91;100.00;102374.50;10525351;28;20094;-81
2023/05/19 00:10:11;;;;;;;14.35;6.32;;;;;;;4.88;100.00;102368.13;10506879;28;20036;-81
2023/05/19 00:15:12;;;;;;;9.98;7.15;;;;;;;4.84;100.00;102382.47;10524102;28;20040;-81
2023/05/19 00:20:13;;;;;;;13.15;7.13;;;;;;;4.79;100.00;102376.88;10524959;28;20388;-81
2023/05/19 00:25:13;;;;;;;15.82;7.07;;;;;;;4.82;100.00;102376.22;10523829;28;20062;-81
2023/05/19 00:30:14;;;;;;;12.85;6.13;;;;;;;4.89;100.00;102369.97;10506461;28;20114;-80
2023/05/19 00:35:15;;;;;;;13.43;6.28;;;;;;;4.92;100.00;102372.84;10524497;28;20050;-81
2023/05/19 00:40:15;;;;;;;10.95;6.43;;;;;;;4.91;100.00;102369.31;10524064;28;20047;-80
2023/05/19 00:45:16;;;;;;;18.83;7.72;;;;;;;4.98;100.00;102374.31;10506523;28;20484;-81
2023/05/19 00:50:16;;;;;;;13.50;7.63;;;;;;;4.97;100.00;102371.59;10464379;28;20040;-81
2023/05/19 00:55:17;;;;;;;16.38;5.68;;;;;;;4.95;100.00;102368.84;10520666;28;20521;-81
2023/05/19 01:00:18;;;;;;;13.80;7.88;;;;;;;4.84;100.00;102362.66;10506010;28;20042;-79
2023/05/19 01:05:18;;;;;;;9.02;6.53;;;;;;;4.78;100.00;102367.25;10482339;28;20383;-80
2023/05/19 01:10:19;;;;;;;10.50;6.53;;;;;;;4.82;100.00;102361.59;10512626;28;20120;-78
2023/05/19 01:15:20;;;;;;;18.65;6.15;;;;;;;4.74;100.00;102369.41;10531101;28;20048;-80
2023/05/19 01:20:26;;;;;;;14.50;6.78;;;;;;;4.72;100.00;102377.06;10498429;28;20144;-81
2023/05/19 01:25:50;;;;;;;15.02;6.03;;;;;;;4.69;100.00;102374.16;10471907;28;20028;-81
2023/05/19 01:30:55;;;;;;;17.17;8.93;;;;;;;4.64;100.00;102373.72;10506358;28;20042;-80
2023/05/19 01:35:55;;;;;;;10.65;7.20;;;;;;;4.50;100.00;102369.81;10530057;28;20086;-80
2023/05/19 01:40:56;;;;;;;12.77;7.45;;;;;;;4.37;100.00;102378.06;10512071;28;20119;-80
2023/05/19 01:45:57;;;;;;;8.73;5.97;;;;;;;4.26;100.00;102376.09;10511703;28;20170;-80
2023/05/19 01:50:58;;;;;;;12.95;6.90;;;;;;;4.22;100.00;102376.56;10511487;28;20071;-80
2023/05/19 01:55:58;;;;;;;24.48;11.27;;;;;;;4.19;100.00;102369.41;10512544;28;20126;-80
2023/05/19 02:01:08;;;;;;;17.33;8.77;;;;;;;4.13;100.00;102370.47;10511121;28;20047;-80
2023/05/19 02:06:24;;;;;;;11.07;6.53;;;;;;;4.11;100.00;102379.03;10528869;28;20651;-81
2023/05/19 02:11:29;;;;;;;17.63;8.38;;;;;;;4.07;100.00;102376.88;10525509;28;20113;-81
2023/05/19 02:16:30;;;;;;;16.23;9.60;;;;;;;3.99;100.00;102384.69;10527813;28;20036;-81
2023/05/19 02:21:30;;;;;;;14.93;7.68;;;;;;;3.96;100.00;102357.72;10526662;28;20032;-80
2023/05/19 02:26:31;;;;;;;15.90;8.20;;;;;;;3.94;100.00;102355.72;10526325;28;20123;-80
2023/05/19 02:31:31;;;;;;;12.27;8.52;;;;;;;4.01;100.00;102358.16;10528760;28;20055;-80
2023/05/19 02:36:34;;;;;;;15.07;7.35;;;;;;;4.14;100.00;102355.09;10526785;28;20459;-80
2023/05/19 02:41:34;;;;;;;13.57;8.50;;;;;;;4.15;100.00;102353.41;10509609;28;20114;-80
2023/05/19 02:46:35;;;;;;;11.75;7.20;;;;;;;4.02;100.00;102349.63;10526053;28;20174;-80
2023/05/19 02:51:35;;;;;;;13.98;6.88;;;;;;;4.01;100.00;102359.84;10502456;28;20396;-80
2023/05/19 02:56:35;;;;;;;16.92;9.63;;;;;;;3.86;100.00;102357.56;10504409;28;20111;-80
2023/05/19 03:01:36;;;;;;;18.02;8.00;;;;;;;3.79;100.00;102357.72;10525039;28;20182;-80
2023/05/19 03:06:37;;;;;;;15.30;8.50;;;;;;;3.72;100.00;102355.28;10525409;28;20040;-80
2023/05/19 03:11:38;;;;;;;25.40;8.48;;;;;;;3.71;100.00;102356.97;10526919;28;20036;-80
2023/05/19 03:16:42;;;;;;;14.40;8.57;;;;;;;3.76;100.00;102360.03;10524400;28;20460;-79
2023/05/19 03:21:42;;;;;;;13.45;7.82;;;;;;;3.80;100.00;102360.47;10525346;28;20039;-80
2023/05/19 03:26:43;;;;;;;15.30;7.50;;;;;;;3.79;100.00;102366.41;10525073;28;20059;-80
2023/05/19 03:31:43;;;;;;;15.82;10.27;;;;;;;3.73;100.00;102358.03;10524399;28;20114;-82
2023/05/19 03:36:44;;;;;;;17.40;8.60;;;;;;;3.77;100.00;102362.75;10526377;28;20036;-80
2023/05/19 03:41:44;;;;;;;11.65;7.55;;;;;;;3.71;100.00;102356.06;10527132;28;20126;-82
2023/05/19 03:46:45;;;;;;;15.82;8.60;;;;;;;3.61;100.00;102361.97;10524844;28;20069;-83
2023/05/19 03:51:45;;;;;;;16.67;10.32;;;;;;;3.58;100.00;102362.59;10525661;28;20127;-83
2023/05/19 03:56:46;;;;;;;17.15;9.20;;;;;;;3.69;100.00;102368.84;10525314;28;20067;-79
2023/05/19 04:01:47;;;;;;;17.83;9.93;;;;;;;3.73;100.00;102367.47;10507356;28;20480;-79
2023/05/19 04:06:48;;;;;;;18.47;10.33;;;;;;;3.75;100.00;102371.13;10524229;28;20054;-82
2023/05/19 04:11:48;;;;;;;16.92;10.05;;;;;;;3.94;100.00;102386.81;10525437;28;20037;-79
2023/05/19 04:16:49;;;;;;;18.42;11.55;;;;;;;4.01;100.00;102386.66;10523446;28;20052;-79
2023/05/19 04:21:49;;;;;;;14.95;9.13;;;;;;;4.04;100.00;102393.84;10522762;28;20109;-79
2023/05/19 04:26:50;;;;;;;18.00;9.80;;;;;;;4.08;100.00;102394.28;10522501;28;20503;-80
2023/05/19 04:31:51;;;;;;;20.42;11.55;;;;;;;4.16;100.00;102389.84;10525141;28;20042;-80
2023/05/19 04:36:52;;;;;;;18.40;9.95;;;;;;;4.33;100.00;102390.59;10513804;28;20034;-81
2023/05/19 04:41:53;;;;;;;19.70;11.65;;;;;;;4.49;100.00;102391.31;10506654;28;20460;-79
2023/05/19 04:46:56;;;;;;;17.38;9.27;;;;;;;4.59;100.00;102390.50;10529497;28;20028;-80
2023/05/19 04:51:57;;;;;;;19.95;9.70;;;;;;;4.70;100.00;102387.25;10530944;28;20040;-79
2023/05/19 04:56:57;;;;;;;14.35;9.00;;;;;;;4.87;100.00;102385.38;10531967;28;20111;-81
2023/05/19 05:01:58;;;;;;;15.48;8.55;;;;;;;5.13;100.00;102384.31;10527767;28;20048;-78
2023/05/19 05:06:58;;;;;;;29.67;12.70;;;;;;;5.39;100.00;102384.19;10511598;28;20187;-84
2023/05/19 05:12:00;;;;;;;22.25;10.43;;;;;;;5.66;100.00;102376.19;10531043;28;20047;-85
2023/05/19 05:17:01;;;;;;;22.10;10.33;;;;;;;6.37;100.00;102381.69;10529074;28;20066;-83
2023/05/19 05:22:03;;;;;;;12.00;7.27;;;;;;;7.45;100.00;102370.19;10489193;28;20838;-84
2023/05/19 05:27:04;;;;;;;15.30;8.60;;;;;;;8.80;100.00;102341.94;10470766;28;20539;-82
2023/05/19 05:32:05;;;;;;;14.87;5.73;;;;;;;10.03;100.00;102311.00;10526919;28;20036;-80
2023/05/19 05:37:05;;;;;;;14.18;6.03;;;;;;;11.27;100.00;102307.53;10530393;28;20491;-82
2023/05/19 05:42:07;;;;;;;13.98;6.15;;;;;;;12.16;100.00;102314.25;10528128;28;20275;-82
2023/05/19 05:47:10;;;;;;;14.05;6.22;;;;;;;13.19;100.00;102305.66;10511452;28;20104;-84
2023/05/19 05:52:11;;;;;;;14.00;7.13;;;;;;;14.46;100.00;102306.75;10511687;28;20036;-85
2023/05/19 05:57:12;;;;;;;10.93;6.50;;;;;;;15.25;100.00;102303.00;10527479;28;20072;-81
2023/05/19 06:02:12;;;;;;;14.37;5.73;;;;;;;15.90;96.73;102310.66;10528833;28;20126;-84
2023/05/19 06:07:13;;;;;;;11.53;6.77;;;;;;;16.78;83.09;102319.13;10527662;28;20032;-84
2023/05/19 06:12:13;;;;;;;11.70;6.77;;;;;;;16.15;81.33;102323.28;10481184;28;20094;-83
2023/05/19 06:17:14;;;;;;;19.33;5.90;;;;;;;15.16;87.63;102326.25;10508954;28;20497;-81
2023/05/19 06:22:14;;;;;;;11.90;5.65;;;;;;;14.59;96.70;102324.09;10529190;28;20080;-83
2023/05/19 06:27:15;;;;;;;14.93;6.55;;;;;;;15.08;100.00;102317.03;10528815;28;20043;-83
2023/05/19 06:32:15;;;;;;;16.02;6.20;;;;;;;17.21;88.74;102325.44;10509913;28;20043;-85
2023/05/19 06:37:18;;;;;;;18.27;6.83;;;;;;;18.66;69.28;102308.28;10528362;28;20035;-83
2023/05/19 06:42:22;;;;;;;9.07;5.50;;;;;;;19.37;66.66;102300.22;10528059;28;20123;-84
2023/05/19 06:47:23;;;;;;;14.82;5.57;;;;;;;19.80;65.43;102306.09;10526238;28;20038;-83
2023/05/19 06:52:23;;;;;;;8.03;5.27;;;;;;;20.81;60.95;102308.25;10528855;28;20030;-83
2023/05/19 06:57:24;;;;;;;15.77;6.10;;;;;;;20.98;55.91;102314.97;10527606;28;20118;-84
2023/05/19 07:02:24;;;;;;;14.17;6.70;;;;;;;20.11;61.45;102306.16;10527690;28;20118;-83
2023/05/19 07:07:25;;;;;;;12.73;6.30;;;;;;;20.67;55.92;102305.16;10525416;28;20040;-83
2023/05/19 07:12:26;;;;;;;13.97;6.03;;;;;;;19.93;55.92;102310.06;10525696;28;20562;-82
2023/05/19 07:17:26;;;;;;;11.17;5.13;;;;;;;19.58;59.13;102304.47;10527876;28;20113;-83
2023/05/19 07:22:27;;;;;;;10.67;5.43;;;;;;;19.45;59.16;102303.16;10525171;28;20490;-84
2023/05/19 07:27:27;;;;;;;6.27;4.03;;;;;;;19.56;56.48;102300.84;10525307;28;20074;-83
2023/05/19 07:32:28;;;;;;;9.43;4.90;;;;;;;20.11;58.44;102300.84;10526701;28;20036;-84
2023/05/19 07:37:28;;;;;;;18.13;6.10;;;;;;;21.74;56.54;102296.47;10524745;28;20462;-83
2023/05/19 07:42:29;;;;;;;10.57;4.67;;;;;;;23.12;49.91;102292.28;10524445;28;20036;-84
2023/05/19 07:47:29;;;;;;;9.43;4.67;;;;;;;24.04;46.10;102302.72;10525196;28;20080;-84
2023/05/19 07:52:30;;;;;;;13.07;5.22;;;;;;;24.02;46.04;102291.09;10507951;28;20480;-84
2023/05/19 07:57:31;;;;;;;7.70;4.73;;;;;;;24.46;46.03;102294.34;10515763;28;20426;-84
2023/05/19 08:02:32;;;;;;;9.63;4.30;;;;;;;23.82;46.01;102287.22;10525211;28;20122;-83
2023/05/19 08:07:32;;;;;;;9.68;4.47;;;;;;;24.36;45.09;102293.34;10528121;28;20070;-82
2023/05/19 08:12:33;;;;;;;11.77;4.47;;;;;;;24.95;40.65;102291.38;10517343;28;20135;-87
2023/05/19 08:17:33;;;;;;;6.97;3.70;;;;;;;25.04;41.73;102288.81;10491959;28;20068;-86
2023/05/19 08:22:34;;;;;;;11.07;4.47;;;;;;;25.40;40.82;102277.50;10496368;28;20127;-85
2023/05/19 08:27:34;;;;;;;9.60;4.27;;;;;;;25.71;42.05;102280.44;10515697;28;20082;-85
2023/05/19 08:32:35;;;;;;;7.33;2.57;;;;;;;25.90;35.08;102270.72;10533885;28;20043;-84
2023/05/19 08:37:38;;;;;;;11.23;4.30;;;;;;;25.12;39.75;102267.44;10532220;28;20032;-85
2023/05/19 08:42:39;;;;;;;12.38;3.88;;;;;;;25.16;39.45;102255.84;10531729;28;20384;-86
2023/05/19 08:47:44;;;;;;;12.90;3.07;;;;;;;25.37;37.18;102248.88;10496822;28;20123;-87
2023/05/19 08:52:50;;;;;;;9.43;3.22;;;;;;;24.75;37.84;102241.22;10514310;28;20028;-87
2023/05/19 08:57:50;;;;;;;11.73;3.00;;;;;;;23.94;36.26;102241.06;10513155;28;20040;-85
2023/05/19 09:02:51;;;;;;;7.47;3.30;;;;;;;24.26;38.08;102236.16;10529334;28;20138;-85
2023/05/19 09:07:52;;;;;;;9.63;2.40;;;;;;;24.60;34.83;102231.19;10511744;28;20115;-86
2023/05/19 09:12:52;;;;;;;6.07;3.33;;;;;;;25.27;37.17;102230.94;10513069;28;20039;-89
2023/05/19 09:18:12;;;;;;;10.57;4.30;;;;;;;24.90;35.06;102221.72;10529863;28;20162;-88
2023/05/19 09:23:14;;;;;;;8.52;3.05;;;;;;;24.86;34.67;102222.56;10512202;28;20059;-90
2023/05/19 09:28:25;;;;;;;8.35;3.20;;;;;;;24.64;37.66;102216.06;10530258;28;20028;-90
2023/05/19 09:33:27;;;;;;;11.33;4.03;;;;;;;24.58;34.92;102221.38;10512995;28;20039;-88
2023/05/19 09:38:27;;;;;;;;;;;;;;;24.93;39.87;102218.19;10528829;28;20033;-87
2023/05/19 09:43:28;;;;;;;10.90;3.40;;;;;;;25.03;34.61;102211.09;10529874;28;19920;-88
2023/05/19 09:48:29;;;;;;;13.90;3.88;;;;;;;25.84;36.32;102191.16;10512299;28;20036;-87
2023/05/19 09:53:32;;;;;;;8.13;3.80;;;;;;;26.95;34.75;102204.00;10530212;28;20127;-86
2023/05/19 09:58:36;;;;;;;7.72;3.47;;;;;;;26.75;33.10;102186.97;10528725;28;20032;-86
2023/05/19 10:03:37;;;;;;;10.50;3.25;;;;;;;26.72;34.41;102193.25;10528853;28;20395;-87
2023/05/19 10:08:37;;;;;;;6.70;2.73;;;;;;;25.82;31.89;102192.03;10510464;28;20127;-88
2023/05/19 10:13:38;;;;;;;6.93;2.37;;;;;;;24.84;33.80;102205.59;10527234;28;20366;-89
2023/05/19 10:18:38;;;;;;;6.07;2.17;;;;;;;24.81;33.48;102202.00;10511314;28;20074;-88
2023/05/19 10:23:39;;;;;;;5.47;2.67;;;;;;;24.42;35.88;102196.19;10529332;28;20399;-86
2023/05/19 10:28:40;;;;;;;10.53;3.50;;;;;;;24.61;33.82;102192.84;10528541;28;20047;-88
2023/05/19 10:34:17;;;;;;;7.40;2.70;;;;;;;25.98;35.18;102184.97;10509908;28;20040;-88
2023/05/19 10:39:23;;;;;;;6.13;2.92;;;;;;;25.03;31.60;102185.25;10528611;28;20118;-88
2023/05/19 10:44:49;;;;;;;5.95;2.72;;;;;;;24.02;33.56;102175.25;10509834;28;20044;-85
2023/05/19 10:49:53;;;;;;;10.40;3.45;;;;;;;24.59;34.16;102172.31;10528042;28;20036;-86
2023/05/19 10:54:54;;;;;;;6.10;2.80;;;;;;;24.53;34.45;102162.44;10526626;28;20092;-88
2023/05/19 10:59:55;;;;;;;20.87;4.33;;;;;;;25.94;36.41;102170.63;10508981;28;20123;-89
2023/05/19 11:04:57;;;;;;;9.27;3.57;;;;;;;25.92;32.38;102167.94;10526587;28;20050;-88
2023/05/19 11:09:57;;;;;;;8.13;3.35;;;;;;;26.13;33.64;102171.59;10507330;28;20395;-88
2023/05/19 11:14:58;;;;;;;5.20;2.87;;;;;;;25.64;32.97;102159.78;10524027;28;20034;-89
2023/05/19 11:19:58;;;;;;;11.23;3.47;;;;;;;25.48;33.70;102165.94;10525219;28;20172;-88
2023/05/19 11:24:59;;;;;;;6.33;3.77;;;;;;;25.56;31.43;102174.91;10525257;28;20032;-88
2023/05/19 11:30:04;;;;;;;10.77;3.37;;;;;;;25.90;32.61;102159.00;10526851;28;20046;-88
2023/05/19 11:35:04;;;;;;;6.18;3.40;;;;;;;25.37;34.46;102155.09;10524508;28;20400;-85
2023/05/19 11:40:06;;;;;;;9.37;3.07;;;;;;;24.12;33.91;102149.50;10508818;28;20032;-87
2023/05/19 11:45:07;;;;;;;7.05;3.88;;;;;;;25.14;35.03;102158.53;10507272;28;20472;-86
2023/05/19 11:50:10;;;;;;;7.38;3.75;;;;;;;25.00;35.03;102145.03;10524404;28;20057;-86
2023/05/19 11:55:22;;;;;;;13.40;4.07;;;;;;;26.06;35.08;102126.88;10523923;28;20100;-86
2023/05/19 12:00:23;;;;;;;11.27;3.80;;;;;;;26.64;35.54;102122.53;10524838;28;20043;-87
2023/05/19 12:05:24;;;;;;;10.50;4.13;;;;;;;27.07;33.69;102127.00;10525655;28;20040;-86
2023/05/19 12:10:25;;;;;;;7.83;2.83;;;;;;;26.82;32.06;102121.63;10507055;28;20445;-88
2023/05/19 12:15:26;;;;;;;24.40;3.58;;;;;;;25.82;31.80;102115.19;10507532;28;20379;-88
2023/05/19 12:20:27;;;;;;;16.87;4.03;;;;;;;25.23;31.04;102112.16;10525066;28;20028;-86
2023/05/19 12:25:28;;;;;;;6.20;2.95;;;;;;;25.33;32.78;102105.97;10506836;28;20064;-89
2023/05/19 12:30:29;;;;;;;7.97;3.57;;;;;;;25.82;35.13;102100.84;10523774;28;20143;-86
2023/05/19 12:35:32;;;;;;;8.50;3.60;;;;;;;26.24;33.25;102097.44;10524446;28;20153;-87
2023/05/19 12:40:33;;;;;;;10.25;3.20;;;;;;;25.74;32.42;102104.41;10507018;28;20081;-87
2023/05/19 12:45:34;;;;;;;8.52;3.08;;;;;;;25.16;34.92;102084.44;10490084;28;20036;-86
2023/05/19 12:50:35;;;;;;;7.75;3.58;;;;;;;24.26;36.14;102093.50;10523913;28;20032;-86
2023/05/19 12:55:41;;;;;;;10.57;3.33;;;;;;;23.44;37.39;102106.75;10528276;28;20035;-88
2023/05/19 13:00:43;;;;;;;9.07;3.55;;;;;;;24.63;34.66;102096.53;10530907;28;20040;-88
2023/05/19 13:05:45;;;;;;;9.38;2.33;;;;;;;25.34;34.94;102101.50;10514322;28;20054;-87
2023/05/19 13:10:46;;;;;;;7.90;3.85;;;;;;;25.70;32.21;102102.59;10530827;28;20081;-89
2023/05/19 13:15:49;;;;;;;7.97;3.23;;;;;;;26.12;33.34;102096.47;10513730;28;20540;-87
2023/05/19 13:20:51;;;;;;;7.57;2.80;;;;;;;26.20;30.44;102084.91;10512953;28;20059;-88
2023/05/19 13:25:52;;;;;;;8.98;2.95;;;;;;;25.71;32.65;102068.66;10531418;28;20396;-89
2023/05/19 13:30:52;;;;;;;5.10;2.70;;;;;;;24.83;32.56;102069.94;10529062;28;20064;-90
2023/05/19 13:35:53;;;;;;;10.20;3.17;;;;;;;24.14;34.12;102065.75;10529607;28;20472;-91
2023/05/19 13:40:53;;;;;;;8.63;4.63;;;;;;;24.51;34.59;102066.97;10512396;28;20040;-90
2023/05/19 13:45:54;;;;;;;6.83;3.53;;;;;;;24.69;34.27;102053.75;10531266;28;20039;-86
2023/05/19 13:50:54;;;;;;;6.03;3.23;;;;;;;24.53;35.61;102044.69;10530887;28;20115;-89
2023/05/19 13:55:55;;;;;;;6.83;3.70;;;;;;;25.32;33.56;102041.66;10528562;28;21121;-90
2023/05/19 14:00:58;;;;;;;6.80;3.53;;;;;;;24.86;35.10;102051.22;10528841;28;20166;-88
2023/05/19 14:05:59;;;;;;;10.13;3.97;;;;;;;25.52;34.76;102049.84;10528746;28;20108;-89
2023/05/19 14:10:59;;;;;;;5.60;2.60;;;;;;;24.76;31.61;102047.59;10530078;28;20064;-87
2023/05/19 14:16:00;;;;;;;7.87;2.73;;;;;;;24.39;35.10;102043.69;10529756;28;20368;-88
2023/05/19 14:21:00;;;;;;;7.13;2.60;;;;;;;24.76;31.87;102041.31;10527906;28;20044;-85
2023/05/19 14:26:01;;;;;;;3.43;2.40;;;;;;;24.13;33.36;102042.56;10530101;28;20396;-89
2023/05/19 14:31:01;;;;;;;8.87;2.20;;;;;;;24.09;34.39;102040.75;10525921;28;20069;-87
2023/05/19 14:36:04;;;;;;;9.70;2.50;;;;;;;23.82;34.45;102046.66;10525783;28;20039;-87
2023/05/19 14:41:05;;;;;;;15.40;6.90;;;;;;;22.02;35.82;102050.16;10528443;28;20036;-90
2023/05/19 14:46:05;;;;;;;10.50;3.47;;;;;;;21.70;35.69;102043.31;10509651;28;20451;-86
2023/05/19 14:51:06;;;;;;;9.93;3.60;;;;;;;22.30;41.14;102030.19;10511701;28;20274;-87
2023/05/19 14:56:06;;;;;;;4.60;1.73;;;;;;;22.55;35.97;102030.66;10489676;28;20491;-87
2023/05/19 15:01:07;;;;;;;9.07;2.80;;;;;;;21.87;34.82;102021.41;10526510;28;20047;-85
2023/05/19 15:06:09;;;;;;;11.47;2.97;;;;;;;21.49;38.04;102019.78;10524827;28;20100;-84
2023/05/19 15:11:09;;;;;;;;;;;;;;;20.86;39.35;102032.59;10493240;28;20186;-84
2023/05/19 15:16:10;;;;;;;7.85;2.40;;;;;;;20.06;41.36;102019.06;10524995;28;19948;-83
2023/05/19 15:21:10;;;;;;;8.40;3.03;;;;;;;19.71;40.86;102004.75;10526984;28;20153;-86
2023/05/19 15:26:11;;;;;;;8.07;2.67;;;;;;;19.51;42.23;102000.69;10525066;28;20064;-88
2023/05/19 15:31:11;;;;;;;11.55;2.97;;;;;;;19.43;40.97;102011.94;10525385;28;20119;-86
2023/05/19 15:36:15;;;;;;;6.45;2.35;;;;;;;19.04;44.48;102008.16;10523783;28;20126;-84
2023/05/19 15:41:18;;;;;;;17.85;9.18;;;;;;;18.97;46.86;102004.38;10508867;28;20361;-88
2023/05/19 15:46:19;;;;;;;6.68;4.05;;;;;;;19.22;42.54;102010.44;10524928;28;20040;-84
2023/05/19 15:51:19;;;;;;;6.20;2.50;;;;;;;19.32;42.78;102004.56;10522163;28;20119;-83
2023/05/19 15:56:21;;;;;;;22.23;14.02;;;;;;;19.22;41.96;101995.44;10524779;28;20381;-86
2023/05/19 16:01:21;;;;;;;12.45;5.78;;;;;;;19.26;45.52;101996.41;10523173;28;20036;-85
2023/05/19 16:06:23;;;;;;;6.78;3.80;;;;;;;19.32;46.17;101987.75;10525193;28;20043;-83
2023/05/19 16:11:23;;;;;;;15.68;11.65;;;;;;;19.19;44.34;101987.38;10524882;28;20423;-86
2023/05/19 16:16:24;;;;;;;5.43;2.60;;;;;;;18.98;44.42;101984.97;10490376;28;20040;-85
2023/05/19 16:21:25;;;;;;;11.57;3.03;;;;;;;18.89;43.64;101971.38;10524788;28;20127;-85
2023/05/19 16:26:25;;;;;;;9.77;3.45;;;;;;;18.81;45.69;101968.50;10524914;28;20534;-84
2023/05/19 16:31:26;;;;;;;10.23;3.28;;;;;;;18.75;44.65;101965.66;10531959;28;20109;-85
2023/05/19 16:36:26;;;;;;;5.03;2.53;;;;;;;18.68;45.50;101969.88;10532043;28;20060;-88
2023/05/19 16:41:27;;;;;;;3.38;2.00;;;;;;;18.53;46.86;101964.06;10529146;28;20131;-85
2023/05/19 16:46:27;;;;;;;8.63;3.22;;;;;;;18.34;46.15;101961.72;10514413;28;20499;-84
2023/05/19 16:51:28;;;;;;;11.50;2.63;;;;;;;18.37;47.17;101958.25;10531790;28;20119;-86
2023/05/19 16:56:28;;;;;;;23.58;3.25;;;;;;;18.33;45.52;101957.28;10515994;28;20068;-86
2023/05/19 17:01:29;;;;;;;8.82;2.63;;;;;;;18.19;45.91;101954.16;10531019;28;20115;-88
2023/05/19 17:06:30;;;;;;;7.25;2.38;;;;;;;18.13;46.65;101959.25;10532321;28;20040;-86
2023/05/19 17:11:30;;;;;;;8.07;2.65;;;;;;;18.04;47.76;101962.50;10513121;28;20098;-86
2023/05/19 17:16:31;;;;;;;9.13;2.92;;;;;;;17.89;46.77;101946.94;10529962;28;20093;-87
2023/05/19 17:21:32;;;;;;;5.72;2.47;;;;;;;17.76;47.82;101957.94;10532301;28;20123;-88
2023/05/19 17:26:33;;;;;;;4.78;2.58;;;;;;;17.68;47.81;101955.03;10529922;28;20040;-88
2023/05/19 17:31:33;;;;;;;6.03;2.53;;;;;;;17.57;49.80;101961.69;10530938;28;20075;-88
2023/05/19 17:36:34;;;;;;;5.32;2.13;;;;;;;17.48;48.69;101962.25;10510679;28;20039;-86
2023/05/19 17:41:34;;;;;;;4.63;1.75;;;;;;;17.25;51.64;101954.34;10527017;28;20115;-85
2023/05/19 17:46:37;;;;;;;5.57;2.13;;;;;;;17.12;49.70;101967.94;10531097;28;20048;-81
2023/05/19 17:51:38;;;;;;;3.10;2.03;;;;;;;16.97;49.73;101958.59;10529154;28;20471;-86
2023/05/19 17:56:40;;;;;;;9.88;2.67;;;;;;;16.89;53.01;101957.34;10527743;28;20108;-83
2023/05/19 18:01:40;;;;;;;;;;;;;;;16.85;51.54;101969.56;10512013;28;20118;-88
2023/05/19 18:06:41;;;;;;;4.63;2.20;;;;;;;16.55;54.80;101974.50;10529485;28;20018;-87
2023/05/19 18:11:41;;;;;;;7.07;2.72;;;;;;;16.40;54.97;101967.75;10486313;28;20079;-87
2023/05/19 18:16:42;;;;;;;6.13;1.88;;;;;;;16.27;55.09;101969.00;10489353;28;20127;-87
2023/05/19 18:21:42;;;;;;;4.82;3.30;;;;;;;16.17;56.45;101965.91;10523252;28;20040;-88
2023/05/19 18:26:43;;;;;;;5.03;1.90;;;;;;;15.83;59.62;101970.63;10526132;28;20119;-86
2023/05/19 18:31:43;;;;;;;5.15;2.95;;;;;;;15.73;59.80;101966.66;10527967;28;20036;-85
2023/05/19 18:36:44;;;;;;;4.78;2.03;;;;;;;15.58;62.54;101980.09;10528563;28;20448;-89
2023/05/19 18:41:46;;;;;;;5.00;2.78;;;;;;;15.40;63.86;101985.41;10527473;28;20131;-88
2023/05/19 18:46:46;;;;;;;5.93;2.05;;;;;;;15.37;64.08;101990.56;10526877;28;20464;-87
2023/05/19 18:51:47;;;;;;;5.38;2.03;;;;;;;15.31;64.54;102001.75;10509067;28;20036;-88
2023/05/19 18:56:47;;;;;;;9.35;2.30;;;;;;;14.95;67.29;101999.19;10492265;28;20048;-86
2023/05/19 19:01:48;;;;;;;2.78;2.08;;;;;;;14.60;68.52;102004.50;10527283;28;20117;-87
2023/05/19 19:06:49;;;;;;;4.97;2.20;;;;;;;14.22;75.12;102007.03;10492581;28;20429;-87
2023/05/19 19:11:49;;;;;;;7.93;2.75;;;;;;;13.97;79.92;102009.22;10525057;28;20085;-86
2023/05/19 19:16:49;;;;;;;6.32;1.88;;;;;;;13.71;82.91;102012.28;10526158;28;20111;-82
2023/05/19 19:21:50;;;;;;;4.97;2.78;;;;;;;13.56;86.07;102014.09;10526410;28;20245;-88
2023/05/19 19:26:51;;;;;;;4.28;2.30;;;;;;;13.20;95.31;102022.66;10524597;28;20548;-87
2023/05/19 19:31:51;;;;;;;5.78;2.85;;;;;;;12.90;100.00;102028.91;10525409;28;20130;-87
2023/05/19 19:36:52;;;;;;;6.53;2.20;;;;;;;12.58;100.00;102033.22;10526825;28;20032;-87
2023/05/19 19:41:53;;;;;;;10.80;4.47;;;;;;;12.33;100.00;102039.66;10523937;28;20507;-86
2023/05/19 19:46:54;;;;;;;4.88;2.30;;;;;;;12.24;100.00;102044.34;10526196;28;20031;-87
2023/05/19 19:51:54;;;;;;;6.32;2.97;;;;;;;12.03;100.00;102044.88;10507390;28;20468;-87
2023/05/19 19:56:55;;;;;;;6.57;2.95;;;;;;;12.27;100.00;102049.78;10525449;28;20106;-88
2023/05/19 20:01:55;;;;;;;6.30;2.70;;;;;;;12.52;100.00;102055.59;10507026;28;20060;-87
2023/05/19 20:06:56;;;;;;;6.75;2.97;;;;;;;12.36;100.00;102059.03;10523375;28;20071;-87
2023/05/19 20:11:57;;;;;;;15.40;5.60;;;;;;;12.12;100.00;102057.66;10522737;28;20115;-87
2023/05/19 20:16:57;;;;;;;5.88;2.38;;;;;;;12.03;100.00;102062.34;10524072;28;20052;-87
2023/05/19 20:21:58;;;;;;;6.35;2.97;;;;;;;11.97;100.00;102056.69;10506328;28;20043;-88
2023/05/19 20:26:59;;;;;;;6.18;2.60;;;;;;;12.10;100.00;102061.00;10524780;28;20379;-87
2023/05/19 20:31:59;;;;;;;6.05;2.78;;;;;;;11.77;100.00;102061.63;10522965;28;20131;-87
2023/05/19 20:37:00;;;;;;;7.63;3.03;;;;;;;11.36;100.00;102059.94;10524878;28;20046;-87
2023/05/19 20:42:01;;;;;;;6.55;2.60;;;;;;;10.94;100.00;102063.41;10506605;28;20044;-84
2023/05/19 20:47:03;;;;;;;5.00;2.42;;;;;;;10.69;100.00;102063.50;10506791;28;20816;-88
2023/05/19 20:52:03;;;;;;;4.35;2.72;;;;;;;10.63;100.00;102063.09;10505664;28;20119;-88
2023/05/19 20:57:07;;;;;;;5.43;2.08;;;;;;;10.64;100.00;102070.13;10505734;28;20775;-89
2023/05/19 21:02:08;;;;;;;4.15;1.90;;;;;;;10.62;100.00;102070.06;10522458;28;20085;-88
2023/05/19 21:07:09;;;;;;;5.18;2.75;;;;;;;10.64;100.00;102065.81;10524586;28;20036;-84
2023/05/19 21:12:09;;;;;;;4.03;2.22;;;;;;;10.50;100.00;102062.28;10524181;28;20048;-88
2023/05/19 21:17:10;;;;;;;5.30;2.45;;;;;;;10.67;100.00;102068.66;10529504;28;20051;-88
2023/05/19 21:22:10;;;;;;;3.63;1.85;;;;;;;10.54;100.00;102076.50;10529835;28;20040;-88
2023/05/19 21:27:11;;;;;;;4.88;2.03;;;;;;;10.41;100.00;102073.03;10529358;28;20111;-88
2023/05/19 21:32:11;;;;;;;4.80;2.72;;;;;;;10.30;100.00;102079.22;10527841;28;20067;-89
2023/05/19 21:37:12;;;;;;;6.95;2.30;;;;;;;10.32;100.00;102079.31;10511325;28;20115;-86
2023/05/19 21:42:12;;;;;;;8.52;2.85;;;;;;;10.31;100.00;102077.50;10512195;28;20123;-88
2023/05/19 21:47:13;;;;;;;7.32;2.47;;;;;;;10.42;100.00;102082.72;10529273;28;20119;-88
2023/05/19 21:52:13;;;;;;;4.90;2.67;;;;;;;10.55;100.00;102080.91;10529247;28;20055;-88
2023/05/19 21:57:14;;;;;;;5.25;2.17;;;;;;;10.63;100.00;102087.56;10528715;28;20115;-89
2023/05/19 22:02:15;;;;;;;6.57;1.73;;;;;;;10.64;100.00;102088.47;10528309;28;20115;-88
2023/05/19 22:07:15;;;;;;;5.53;2.45;;;;;;;10.76;100.00;102091.91;10529623;28;20448;-87
2023/05/19 22:12:16;;;;;;;4.25;2.50;;;;;;;10.75;100.00;102078.72;10529474;28;20048;-83
2023/05/19 22:17:16;;;;;;;3.60;1.90;;;;;;;10.71;100.00;102083.75;10530538;28;20137;-89
2023/05/19 22:22:17;;;;;;;5.60;2.67;;;;;;;10.70;100.00;102088.88;10528888;28;20123;-88
2023/05/19 22:27:17;;;;;;;6.95;4.45;;;;;;;10.65;100.00;102075.50;10518250;28;20446;-88
2023/05/19 22:32:18;;;;;;;8.13;4.03;;;;;;;10.51;100.00;102082.41;10526709;28;20036;-88
2023/05/19 22:37:21;;;;;;;4.43;2.05;;;;;;;10.49;100.00;102070.94;10509930;28;20480;-87
2023/05/19 22:42:21;;;;;;;6.50;2.25;;;;;;;10.40;100.00;102078.16;10500676;28;20041;-87
2023/05/19 22:47:22;;;;;;;4.10;2.22;;;;;;;10.34;100.00;102077.72;10478382;28;20379;-88
2023/05/19 22:52:22;;;;;;;4.85;3.08;;;;;;;10.29;100.00;102077.41;10526206;28;20129;-87